createdAt,value
2023-03-26T00:00:27.249Z,11.19
2023-03-26T00:01:26.801Z,11.60
2023-03-26T00:02:27.218Z,13.10
2023-03-26T00:03:25.292Z,14
2023-03-26T00:04:25.969Z,10.69
2023-03-26T00:05:25.128Z,10.30
2023-03-26T00:06:25.826Z,11.10
2023-03-26T00:07:24.939Z,12.5
2023-03-26T00:08:24.639Z,10.19
2023-03-26T00:09:26.349Z,10.10
2023-03-26T00:10:25.831Z,14.10
2023-03-26T00:11:24.249Z,11.10
2023-03-26T00:12:25.944Z,10.69
2023-03-26T00:13:26.170Z,11.30
2023-03-26T00:14:25.082Z,11.80
2023-03-26T00:15:26.034Z,10.19
2023-03-26T00:16:24.748Z,11
2023-03-26T00:17:24.955Z,11.10
2023-03-26T00:18:26.899Z,12
2023-03-26T00:19:25.490Z,11
2023-03-26T00:20:25.088Z,10.89
2023-03-26T00:21:24.828Z,12.30
2023-03-26T00:22:24.714Z,10.80
2023-03-26T00:23:25.954Z,14.5
2023-03-26T00:24:26.045Z,9.5
2023-03-26T00:25:24.459Z,10.10
2023-03-26T00:26:25.250Z,11.19
2023-03-26T00:27:25.220Z,11.30
2023-03-26T00:28:47.083Z,8.800
2023-03-26T00:29:26.331Z,9.5
2023-03-26T00:30:26.099Z,12.19
2023-03-26T00:31:24.721Z,8.800
2023-03-26T00:32:24.930Z,9.899
2023-03-26T00:33:25.074Z,9.800
2023-03-26T00:34:26.157Z,10.5
2023-03-26T00:35:26.290Z,10.69
2023-03-26T00:37:32.559Z,13.10
2023-03-26T00:38:26.474Z,11.80
2023-03-26T00:39:26.090Z,7.300
2023-03-26T00:40:25.444Z,9
2023-03-26T00:41:25.075Z,12.5
2023-03-26T00:42:25.345Z,10.10
2023-03-26T00:43:24.937Z,10.30
2023-03-26T00:44:24.733Z,8.899
2023-03-26T00:45:25.009Z,10.19
2023-03-26T00:46:25.485Z,12.69
2023-03-26T00:47:25.031Z,10.60
2023-03-26T00:48:37.854Z,14.69
2023-03-26T00:49:23.816Z,10.5
2023-03-26T00:50:26.005Z,10.69
2023-03-26T00:51:25.829Z,11.39
2023-03-26T00:52:26.400Z,11.69
2023-03-26T00:53:25.742Z,11.80
2023-03-26T00:54:25.643Z,9.899
2023-03-26T00:55:26.376Z,11
2023-03-26T00:56:25.923Z,9.300
2023-03-26T00:57:34.969Z,12.30
2023-03-26T00:58:25.584Z,10.89
2023-03-26T00:59:25.951Z,11
2023-03-26T01:00:31.257Z,8.899
2023-03-26T01:01:25.220Z,10
2023-03-26T01:02:25.948Z,9.399
2023-03-26T01:03:28.034Z,11.69
2023-03-26T01:04:25.030Z,10.10
2023-03-26T01:05:25.448Z,9.199
2023-03-26T01:06:25.491Z,11.19
2023-03-26T01:07:26.216Z,8
2023-03-26T01:08:25.664Z,9.300
2023-03-26T01:09:25.438Z,9.899
2023-03-26T01:10:25.604Z,10.10
2023-03-26T01:11:25.177Z,8.100
2023-03-26T01:12:24.144Z,9.100
2023-03-26T01:13:25.507Z,8
2023-03-26T01:14:25.341Z,9.899
2023-03-26T01:15:26.565Z,9.199
2023-03-26T01:16:25.403Z,9.899
2023-03-26T01:17:26.862Z,10.39
2023-03-26T01:19:26.014Z,14.10
2023-03-26T01:20:25.470Z,9.5
2023-03-26T01:21:24.883Z,13.10
2023-03-26T01:22:25.296Z,10.5
2023-03-26T01:23:25.337Z,12.10
2023-03-26T01:24:26.321Z,11.5
2023-03-26T01:25:26.485Z,11.69
2023-03-26T01:26:25.232Z,11.39
2023-03-26T01:27:25.697Z,10.5
2023-03-26T01:28:26.421Z,11.30
2023-03-26T01:29:27.049Z,9.199
2023-03-26T01:30:25.060Z,9.800
2023-03-26T01:31:25.241Z,11.19
2023-03-26T01:32:25.802Z,9.899
2023-03-26T01:33:24.869Z,10.60
2023-03-26T01:34:25.019Z,9.5
2023-03-26T01:35:24.308Z,10.10
2023-03-26T01:36:25.536Z,10.80
2023-03-26T01:37:26.069Z,13
2023-03-26T01:38:25.066Z,10.39
2023-03-26T01:39:26.763Z,10.60
2023-03-26T01:40:24.583Z,9.899
2023-03-26T01:41:25.882Z,10.30
2023-03-26T01:42:26.381Z,9.5
2023-03-26T01:43:26.273Z,10.30
2023-03-26T01:44:26.019Z,10.19
2023-03-26T01:45:26.858Z,8.600
2023-03-26T01:46:25.592Z,7.800
2023-03-26T01:47:25.731Z,9.100
2023-03-26T01:48:25.390Z,12.60
2023-03-26T01:49:25.865Z,10.19
2023-03-26T01:50:25.532Z,11.5
2023-03-26T01:51:26.316Z,8.800
2023-03-26T01:52:27.018Z,9.300
2023-03-26T01:53:25.487Z,10
2023-03-26T01:54:25.017Z,8.899
2023-03-26T01:55:25.468Z,10.80
2023-03-26T01:56:25.324Z,9.199
2023-03-26T01:57:25.822Z,8.600
2023-03-26T01:58:25.481Z,11.60
2023-03-26T01:59:26.043Z,12.80
2023-03-26T02:00:26.883Z,11.19
2023-03-26T02:01:26.030Z,11
2023-03-26T02:02:26.368Z,10.89
2023-03-26T02:03:29.895Z,11.30
2023-03-26T02:04:24.796Z,13.69
2023-03-26T02:05:25.852Z,14
2023-03-26T02:06:24.902Z,11.39
2023-03-26T02:07:26.000Z,10
2023-03-26T02:08:24.983Z,9.5
2023-03-26T02:09:25.539Z,7.599
2023-03-26T02:10:25.264Z,8
2023-03-26T02:11:34.746Z,9.199
2023-03-26T02:12:25.034Z,9.300
2023-03-26T02:13:25.596Z,10.69
2023-03-26T02:14:25.360Z,8.199
2023-03-26T02:15:25.534Z,8.199
2023-03-26T02:16:23.664Z,9.899
2023-03-26T02:17:24.888Z,9.100
2023-03-26T02:18:25.502Z,10.89
2023-03-26T02:19:25.221Z,9.600
2023-03-26T02:20:24.542Z,9.100
2023-03-26T02:21:25.345Z,10.30
2023-03-26T02:22:24.076Z,9.699
2023-03-26T02:23:25.905Z,8.600
2023-03-26T02:24:25.563Z,11.60
2023-03-26T02:25:25.734Z,10.10
2023-03-26T02:26:25.289Z,7.400
2023-03-26T02:27:25.739Z,8.800
2023-03-26T02:28:25.968Z,10.80
2023-03-26T02:29:25.924Z,9.399
2023-03-26T02:30:26.264Z,11.19
2023-03-26T02:31:25.725Z,10.60
2023-03-26T02:32:28.769Z,8.199
2023-03-26T02:33:25.116Z,10.5
2023-03-26T02:34:25.711Z,7.599
2023-03-26T02:35:26.290Z,8.800
2023-03-26T02:36:25.546Z,8.199
2023-03-26T02:37:26.292Z,9.399
2023-03-26T02:38:26.323Z,11.60
2023-03-26T02:39:26.466Z,10.5
2023-03-26T02:40:26.964Z,8.100
2023-03-26T02:41:25.899Z,9.100
2023-03-26T02:42:26.288Z,10.5
2023-03-26T02:43:24.886Z,9.399
2023-03-26T02:44:25.822Z,10.19
2023-03-26T02:45:26.161Z,10
2023-03-26T02:46:25.516Z,11.39
2023-03-26T02:47:25.667Z,9.699
2023-03-26T02:48:24.800Z,11
2023-03-26T02:49:25.182Z,11.19
2023-03-26T02:50:25.041Z,10.80
2023-03-26T02:51:24.321Z,8.5
2023-03-26T02:52:25.020Z,9.600
2023-03-26T02:53:24.763Z,10.69
2023-03-26T02:54:26.486Z,9.5
2023-03-26T02:55:25.699Z,9.899
2023-03-26T02:56:25.537Z,11
2023-03-26T02:57:25.726Z,10.60
2023-03-26T02:58:26.411Z,9.600
2023-03-26T02:59:26.040Z,8
2023-03-26T03:00:26.924Z,11
2023-03-26T03:01:25.727Z,11
2023-03-26T03:02:26.003Z,11
2023-03-26T03:03:25.897Z,11
2023-03-26T03:04:25.715Z,11
2023-03-26T03:05:24.508Z,11
2023-03-26T03:06:25.841Z,11
2023-03-26T03:07:25.334Z,11
2023-03-26T03:08:24.413Z,11
2023-03-26T03:09:24.947Z,11
2023-03-26T03:10:24.494Z,11
2023-03-26T03:11:25.210Z,11
2023-03-26T03:12:25.622Z,11
2023-03-26T03:13:25.013Z,11
2023-03-26T03:14:25.501Z,11
2023-03-26T03:15:25.400Z,11
2023-03-26T03:16:24.164Z,11
2023-03-26T03:17:25.441Z,11
2023-03-26T03:18:24.989Z,11
2023-03-26T03:19:26.509Z,11
2023-03-26T03:20:25.594Z,11
2023-03-26T03:21:26.068Z,11
2023-03-26T03:22:25.413Z,11
2023-03-26T03:23:25.865Z,11
2023-03-26T03:24:25.859Z,11
2023-03-26T03:25:25.614Z,11
2023-03-26T03:26:25.775Z,11
2023-03-26T03:27:25.576Z,11
2023-03-26T03:28:26.068Z,11
2023-03-26T03:29:26.585Z,11
2023-03-26T03:30:25.206Z,11
2023-03-26T03:31:26.352Z,11
2023-03-26T03:32:25.113Z,11
2023-03-26T03:33:25.457Z,11
2023-03-26T03:34:24.832Z,11
2023-03-26T03:35:25.395Z,11
2023-03-26T03:36:25.701Z,11
2023-03-26T03:37:23.934Z,11
2023-03-26T03:38:25.411Z,11
2023-03-26T03:39:24.666Z,11
2023-03-26T03:40:25.125Z,11
2023-03-26T03:41:24.587Z,11
2023-03-26T03:42:25.669Z,11
2023-03-26T03:43:23.874Z,11
2023-03-26T03:44:26.130Z,11
2023-03-26T03:45:24.816Z,11
2023-03-26T03:46:24.321Z,11
2023-03-26T03:47:24.877Z,11
2023-03-26T03:48:24.582Z,11
2023-03-26T03:49:25.064Z,11
2023-03-26T03:50:25.186Z,11
2023-03-26T03:51:24.837Z,11
2023-03-26T03:52:25.922Z,11
2023-03-26T03:53:24.565Z,11
2023-03-26T03:54:26.072Z,11
2023-03-26T03:55:25.397Z,11
2023-03-26T03:56:25.231Z,11
2023-03-26T03:57:25.806Z,11
2023-03-26T03:58:26.133Z,11
2023-03-26T03:59:25.802Z,11
2023-03-26T04:00:26.690Z,11
2023-03-26T04:01:23.822Z,8.800
2023-03-26T04:02:24.523Z,8.100
2023-03-26T04:03:33.364Z,11.10
2023-03-26T04:04:27.045Z,8.699
2023-03-26T04:05:24.574Z,10.10
2023-03-26T04:06:25.274Z,10.19
2023-03-26T04:07:26.490Z,10.89
2023-03-26T04:08:26.241Z,8.699
2023-03-26T04:09:27.790Z,9.199
2023-03-26T04:10:26.715Z,10.89
2023-03-26T04:11:26.254Z,11.19
2023-03-26T04:12:26.252Z,10.30
2023-03-26T04:13:26.196Z,7.699
2023-03-26T04:14:25.372Z,10.39
2023-03-26T04:15:24.762Z,10.10
2023-03-26T04:16:25.324Z,8.600
2023-03-26T04:17:26.482Z,12.39
2023-03-26T04:18:25.292Z,8.399
2023-03-26T04:19:26.098Z,8.5
2023-03-26T04:20:26.134Z,8.899
2023-03-26T04:21:26.139Z,9
2023-03-26T04:22:25.623Z,8.800
2023-03-26T04:23:24.892Z,9.899
2023-03-26T04:24:25.222Z,8.199
2023-03-26T04:25:25.735Z,12.19
2023-03-26T04:26:24.455Z,6.099
2023-03-26T04:27:24.875Z,9.600
2023-03-26T04:28:25.154Z,9.699
2023-03-26T04:29:26.256Z,8.100
2023-03-26T04:30:27.107Z,8.800
2023-03-26T04:31:25.749Z,7.099
2023-03-26T04:32:30.925Z,7.800
2023-03-26T04:33:24.075Z,8.100
2023-03-26T04:34:25.528Z,10
2023-03-26T04:35:25.257Z,9.600
2023-03-26T04:36:30.293Z,7.400
2023-03-26T04:37:24.895Z,9
2023-03-26T04:38:24.393Z,8.800
2023-03-26T04:40:24.698Z,8.300
2023-03-26T04:41:25.781Z,6.699
2023-03-26T04:42:27.469Z,10
2023-03-26T04:43:25.286Z,8.5
2023-03-26T04:44:25.426Z,7.900
2023-03-26T04:45:25.772Z,9.5
2023-03-26T04:46:26.555Z,6.699
2023-03-26T04:47:25.950Z,8.399
2023-03-26T04:48:25.544Z,9.199
2023-03-26T04:49:26.940Z,9.5
2023-03-26T04:50:25.020Z,7.900
2023-03-26T04:51:24.625Z,8.199
2023-03-26T04:52:24.185Z,8
2023-03-26T04:54:26.332Z,7.800
2023-03-26T04:55:25.836Z,7
2023-03-26T04:56:39.137Z,7.300
2023-03-26T04:57:24.553Z,6.599
2023-03-26T04:58:38.850Z,7.800
2023-03-26T04:59:27.043Z,9
2023-03-26T05:00:26.811Z,9.199
2023-03-26T05:01:26.309Z,7.400
2023-03-26T05:02:25.299Z,9.600
2023-03-26T05:03:26.629Z,7.800
2023-03-26T05:04:25.469Z,6.699
2023-03-26T05:05:25.846Z,7.800
2023-03-26T05:06:25.439Z,8.699
2023-03-26T05:07:25.895Z,9.899
2023-03-26T05:08:27.301Z,8.699
2023-03-26T05:09:25.841Z,9.199
2023-03-26T05:10:46.049Z,8.100
2023-03-26T05:11:24.523Z,8
2023-03-26T05:12:24.922Z,7.599
2023-03-26T05:13:24.491Z,6.300
2023-03-26T05:14:26.325Z,7.699
2023-03-26T05:15:26.533Z,6
2023-03-26T05:16:24.819Z,6.400
2023-03-26T05:17:24.291Z,7.099
2023-03-26T05:18:24.872Z,5.699
2023-03-26T05:19:24.195Z,8.100
2023-03-26T05:20:25.578Z,6.900
2023-03-26T05:21:25.973Z,5.300
2023-03-26T05:22:25.089Z,8.300
2023-03-26T05:23:25.130Z,6.599
2023-03-26T05:24:27.224Z,9.600
2023-03-26T05:25:26.038Z,6.599
2023-03-26T05:26:25.359Z,5.900
2023-03-26T05:27:26.666Z,6.900
2023-03-26T05:28:25.750Z,6.800
2023-03-26T05:29:26.552Z,7.699
2023-03-26T05:30:26.787Z,5.800
2023-03-26T05:31:25.768Z,5.900
2023-03-26T05:32:26.529Z,7.199
2023-03-26T05:33:25.140Z,6.5
2023-03-26T05:34:26.126Z,6.599
2023-03-26T05:35:27.061Z,5.400
2023-03-26T05:36:25.807Z,7.599
2023-03-26T05:37:26.020Z,6.900
2023-03-26T05:38:26.793Z,7.800
2023-03-26T05:39:26.771Z,8.399
2023-03-26T05:40:26.351Z,5.5
2023-03-26T05:41:25.579Z,5.699
2023-03-26T05:42:26.888Z,7.300
2023-03-26T05:43:27.721Z,9.600
2023-03-26T05:44:27.341Z,8.600
2023-03-26T05:45:25.124Z,7.300
2023-03-26T05:46:25.526Z,10.30
2023-03-26T05:47:25.780Z,7.400
2023-03-26T05:48:27.061Z,8
2023-03-26T05:49:26.200Z,6.699
2023-03-26T05:50:26.573Z,6.5
2023-03-26T05:51:26.360Z,7.5
2023-03-26T05:52:25.884Z,4.699
2023-03-26T05:53:26.105Z,8.600
2023-03-26T05:54:26.579Z,6
2023-03-26T05:55:27.386Z,6.699
2023-03-26T05:56:26.350Z,5.699
2023-03-26T05:57:26.893Z,6.5
2023-03-26T05:58:26.554Z,5.900
2023-03-26T05:59:27.117Z,8.5
2023-03-26T06:00:25.934Z,6
2023-03-26T06:01:25.651Z,9.100
2023-03-26T06:02:26.118Z,7.300
2023-03-26T06:03:25.491Z,7.099
2023-03-26T06:04:27.248Z,7.699
2023-03-26T06:05:27.542Z,6.800
2023-03-26T06:06:25.851Z,6.300
2023-03-26T06:07:25.706Z,6.599
2023-03-26T06:08:25.443Z,5.800
2023-03-26T06:09:26.490Z,6.599
2023-03-26T06:10:26.569Z,7.800
2023-03-26T06:11:25.039Z,7.5
2023-03-26T06:12:25.185Z,6
2023-03-26T06:13:25.025Z,6.599
2023-03-26T06:14:25.548Z,7.599
2023-03-26T06:15:26.245Z,5.5
2023-03-26T06:16:27.292Z,7.099
2023-03-26T06:17:27.052Z,6.800
2023-03-26T06:18:26.023Z,8.600
2023-03-26T06:19:25.356Z,6
2023-03-26T06:20:25.342Z,8.100
2023-03-26T06:21:24.850Z,9.300
2023-03-26T06:22:24.231Z,6.099
2023-03-26T06:23:25.897Z,6.900
2023-03-26T06:24:25.912Z,6.5
2023-03-26T06:26:25.904Z,7.699
2023-03-26T06:27:25.427Z,7.900
2023-03-26T06:28:25.268Z,8
2023-03-26T06:29:26.090Z,7.5
2023-03-26T06:30:26.995Z,5.5
2023-03-26T06:31:25.732Z,5.800
2023-03-26T06:32:25.851Z,7.800
2023-03-26T06:33:26.139Z,7.699
2023-03-26T06:34:26.043Z,7.400
2023-03-26T06:35:25.313Z,8.100
2023-03-26T06:36:24.930Z,9.300
2023-03-26T06:37:25.779Z,8.300
2023-03-26T06:38:25.594Z,9.300
2023-03-26T06:39:25.908Z,6.800
2023-03-26T06:40:25.827Z,10.10
2023-03-26T06:41:26.422Z,7.599
2023-03-26T06:43:06.699Z,8.699
2023-03-26T06:43:33.008Z,7.699
2023-03-26T06:44:25.784Z,6.300
2023-03-26T06:45:25.642Z,8.100
2023-03-26T06:46:25.187Z,6.900
2023-03-26T06:47:25.499Z,7.699
2023-03-26T06:48:26.551Z,6.699
2023-03-26T06:49:28.774Z,8.199
2023-03-26T06:50:26.119Z,6.699
2023-03-26T06:51:22.905Z,8.699
2023-03-26T06:52:25.368Z,7.099
2023-03-26T06:53:25.185Z,7.599
2023-03-26T06:54:25.547Z,6.400
2023-03-26T06:55:25.104Z,6.300
2023-03-26T06:56:25.413Z,7.099
2023-03-26T06:57:24.924Z,6.400
2023-03-26T06:58:25.737Z,8.199
2023-03-26T06:59:29.248Z,7
2023-03-26T07:00:28.040Z,8.399
2023-03-26T07:01:27.476Z,5.900
2023-03-26T07:02:25.881Z,6.400
2023-03-26T07:03:25.390Z,6.599
2023-03-26T07:04:26.918Z,7.699
2023-03-26T07:05:26.975Z,7.5
2023-03-26T07:06:26.091Z,5.900
2023-03-26T07:07:33.978Z,6.5
2023-03-26T07:08:26.540Z,7.5
2023-03-26T07:09:26.589Z,6
2023-03-26T07:12:25.713Z,5
2023-03-26T07:13:24.653Z,4.800
2023-03-26T07:14:24.727Z,5.800
2023-03-26T07:15:25.068Z,4.900
2023-03-26T07:16:26.711Z,7.300
2023-03-26T07:17:26.094Z,6.400
2023-03-26T07:18:25.918Z,7
2023-03-26T07:19:26.300Z,7.099
2023-03-26T07:20:24.424Z,5.800
2023-03-26T07:22:25.917Z,5.699
2023-03-26T07:23:26.200Z,5.300
2023-03-26T07:24:26.050Z,7.400
2023-03-26T07:25:25.995Z,6.199
2023-03-26T07:26:25.532Z,5.699
2023-03-26T07:27:26.551Z,5.5
2023-03-26T07:28:27.002Z,4.699
2023-03-26T07:29:41.334Z,6.400
2023-03-26T07:30:26.691Z,6
2023-03-26T07:31:26.768Z,6.400
2023-03-26T07:33:26.677Z,6.699
2023-03-26T07:34:25.525Z,5.599
2023-03-26T07:35:26.402Z,5.5
2023-03-26T07:36:25.790Z,8.5
2023-03-26T07:37:24.958Z,7.199
2023-03-26T07:38:25.097Z,7.699
2023-03-26T07:39:28.044Z,6
2023-03-26T07:40:27.202Z,6.800
2023-03-26T07:41:25.998Z,6.400
2023-03-26T07:42:25.165Z,6.599
2023-03-26T07:44:25.784Z,6.900
2023-03-26T07:45:26.111Z,7.800
2023-03-26T07:46:27.336Z,6.300
2023-03-26T07:47:26.265Z,7.099
2023-03-26T07:49:26.663Z,7
2023-03-26T07:50:26.432Z,6.699
2023-03-26T07:51:25.851Z,7.699
2023-03-26T07:52:26.184Z,9.100
2023-03-26T07:53:25.491Z,8.399
2023-03-26T07:54:26.175Z,8.300
2023-03-26T07:55:27.208Z,12.69
2023-03-26T07:56:27.028Z,11.19
2023-03-26T07:57:26.235Z,10.19
2023-03-26T07:58:27.157Z,10.5
2023-03-26T07:59:26.256Z,10.69
2023-03-26T08:00:26.240Z,14.39
2023-03-26T08:01:27.372Z,23.39
2023-03-26T08:02:26.740Z,12.89
2023-03-26T08:04:34.478Z,10.30
2023-03-26T08:05:26.647Z,9.600
2023-03-26T08:06:26.141Z,8.600
2023-03-26T08:07:27.042Z,7.400
2023-03-26T08:08:26.669Z,6.400
2023-03-26T08:10:31.020Z,7.099
2023-03-26T08:11:24.695Z,5.800
2023-03-26T08:12:26.341Z,6.699
2023-03-26T08:13:26.608Z,6.5
2023-03-26T08:14:25.734Z,6.300
2023-03-26T08:15:26.068Z,5.800
2023-03-26T08:16:26.481Z,4.800
2023-03-26T08:17:25.874Z,5.300
2023-03-26T08:18:25.730Z,6
2023-03-26T08:19:26.066Z,5.199
2023-03-26T08:20:26.335Z,4.599
2023-03-26T08:21:24.927Z,6.199
2023-03-26T08:22:25.567Z,4.699
2023-03-26T08:23:25.995Z,6.300
2023-03-26T08:24:25.447Z,5.300
2023-03-26T08:25:24.812Z,7
2023-03-26T08:26:25.791Z,7.199
2023-03-26T08:27:25.812Z,7.900
2023-03-26T08:28:25.674Z,10.19
2023-03-26T08:29:25.286Z,6.900
2023-03-26T08:30:25.835Z,8.800
2023-03-26T08:31:25.468Z,6.199
2023-03-26T08:32:25.284Z,6.099
2023-03-26T08:33:25.656Z,6.400
2023-03-26T08:34:25.863Z,4.599
2023-03-26T08:35:26.231Z,6.800
2023-03-26T08:36:25.028Z,4.699
2023-03-26T08:37:25.639Z,5.900
2023-03-26T08:38:25.150Z,5.099
2023-03-26T08:39:25.850Z,6.800
2023-03-26T08:40:26.329Z,5.900
2023-03-26T08:41:25.986Z,3.900
2023-03-26T08:42:25.042Z,5.599
2023-03-26T08:44:25.382Z,3.799
2023-03-26T08:45:25.649Z,4.099
2023-03-26T08:46:26.905Z,4.5
2023-03-26T08:47:25.785Z,4.099
2023-03-26T08:48:24.021Z,3.599
2023-03-26T08:49:26.681Z,4.5
2023-03-26T08:50:24.901Z,6.900
2023-03-26T08:51:26.018Z,5.699
2023-03-26T08:52:24.954Z,4.400
2023-03-26T08:53:25.091Z,5
2023-03-26T08:54:25.332Z,4.300
2023-03-26T08:55:26.340Z,5.099
2023-03-26T08:56:26.414Z,5
2023-03-26T08:57:25.983Z,3.400
2023-03-26T08:58:25.842Z,4.099
2023-03-26T08:59:24.542Z,4
2023-03-26T09:00:27.139Z,5.099
2023-03-26T09:01:25.722Z,3.700
2023-03-26T09:02:24.810Z,3.799
2023-03-26T09:03:26.459Z,4.199
2023-03-26T09:04:25.026Z,4.599
2023-03-26T09:05:25.476Z,4.900
2023-03-26T09:07:25.947Z,4.699
2023-03-26T09:08:26.008Z,3.700
2023-03-26T09:09:25.686Z,4.599
2023-03-26T09:10:25.333Z,5.099
2023-03-26T09:11:26.014Z,4.5
2023-03-26T09:12:26.626Z,4.900
2023-03-26T09:13:25.768Z,4.199
2023-03-26T09:14:26.220Z,4.300
2023-03-26T09:15:25.589Z,4.699
2023-03-26T09:16:27.104Z,5
2023-03-26T09:17:26.025Z,4.699
2023-03-26T09:18:24.708Z,5.199
2023-03-26T09:19:23.992Z,4.800
2023-03-26T09:20:28.679Z,3.599
2023-03-26T09:21:24.026Z,5.300
2023-03-26T09:22:23.605Z,4.400
2023-03-26T09:23:23.231Z,5.599
2023-03-26T09:24:23.789Z,3.400
2023-03-26T09:25:23.541Z,4.699
2023-03-26T09:26:31.463Z,4.900
2023-03-26T09:27:23.567Z,5.099
2023-03-26T09:28:31.230Z,4.099
2023-03-26T09:29:23.976Z,3.200
2023-03-26T09:30:32.526Z,4.300
2023-03-26T09:31:23.605Z,4.800
2023-03-26T09:32:31.523Z,5.099
2023-03-26T09:33:23.339Z,4
2023-03-26T09:34:37.089Z,5
2023-03-26T09:35:24.254Z,4
2023-03-26T09:36:24.416Z,4.599
2023-03-26T09:37:23.715Z,3.5
2023-03-26T09:38:23.595Z,4.099
2023-03-26T09:39:23.954Z,5.699
2023-03-26T09:40:23.841Z,5.599
2023-03-26T09:41:23.380Z,4.599
2023-03-26T09:42:23.789Z,3.700
2023-03-26T09:43:23.450Z,3.900
2023-03-26T09:44:37.960Z,4
2023-03-26T09:45:23.884Z,4.400
2023-03-26T09:46:23.893Z,5.199
2023-03-26T09:47:24.035Z,4
2023-03-26T09:48:23.606Z,4.900
2023-03-26T09:49:23.297Z,4.300
2023-03-26T09:50:23.752Z,3.700
2023-03-26T09:51:25.111Z,4.900
2023-03-26T09:52:23.449Z,5.099
2023-03-26T09:53:24.050Z,4
2023-03-26T09:54:23.606Z,3.5
2023-03-26T09:55:24.162Z,5.900
2023-03-26T09:56:24.124Z,3.900
2023-03-26T09:57:23.884Z,3.599
2023-03-26T09:58:23.952Z,4.099
2023-03-26T09:59:23.749Z,4.699
2023-03-26T10:00:43.797Z,4.199
2023-03-26T10:01:23.738Z,3.799
2023-03-26T10:02:23.942Z,4.5
2023-03-26T10:04:23.724Z,4.099
2023-03-26T10:05:23.688Z,4.599
2023-03-26T10:06:23.504Z,5.800
2023-03-26T10:07:23.363Z,5.300
2023-03-26T10:08:23.565Z,4.099
2023-03-26T10:09:23.686Z,4
2023-03-26T10:10:23.510Z,4.800
2023-03-26T10:11:23.671Z,3.799
2023-03-26T10:12:23.938Z,3
2023-03-26T10:13:23.667Z,3.099
2023-03-26T10:14:24.123Z,5.099
2023-03-26T10:15:25.075Z,3.099
2023-03-26T10:16:23.355Z,2.799
2023-03-26T10:17:23.414Z,2.099
2023-03-26T10:18:27.121Z,2.599
2023-03-26T10:19:23.668Z,2.400
2023-03-26T10:20:23.431Z,3.400
2023-03-26T10:21:25.652Z,2.799
2023-03-26T10:22:23.620Z,2.700
2023-03-26T10:23:23.355Z,2.599
2023-03-26T10:24:23.511Z,2.799
2023-03-26T10:25:24.077Z,3.400
2023-03-26T10:26:24.199Z,2.599
2023-03-26T10:27:24.830Z,3
2023-03-26T10:28:23.569Z,2.599
2023-03-26T10:29:24.150Z,4.300
2023-03-26T10:30:24.444Z,3.900
2023-03-26T10:31:23.510Z,3.799
2023-03-26T10:32:22.995Z,2.200
2023-03-26T10:33:25.070Z,2.599
2023-03-26T10:35:23.392Z,2.200
2023-03-26T10:36:24.125Z,2.799
2023-03-26T10:37:23.724Z,2.400
2023-03-26T10:38:23.794Z,2.700
2023-03-26T10:39:36.129Z,2.299
2023-03-26T10:40:23.522Z,2.400
2023-03-26T10:41:23.459Z,2.200
2023-03-26T10:43:23.279Z,1.899
2023-03-26T10:44:24.077Z,2.400
2023-03-26T10:45:24.168Z,2.200
2023-03-26T10:46:23.815Z,2.799
2023-03-26T10:47:23.777Z,4.300
2023-03-26T10:48:23.359Z,1.399
2023-03-26T10:49:24.240Z,1.600
2023-03-26T10:50:23.937Z,1.5
2023-03-26T10:51:23.392Z,1.799
2023-03-26T10:53:23.588Z,2.5
2023-03-26T10:54:23.720Z,1.5
2023-03-26T10:55:25.431Z,1.799
2023-03-26T10:56:24.049Z,1.5
2023-03-26T10:57:23.988Z,2.299
2023-03-26T10:58:24.082Z,1.600
2023-03-26T10:59:23.829Z,1.700
2023-03-26T11:00:24.041Z,1.600
2023-03-26T11:01:23.951Z,2.200
2023-03-26T11:02:30.275Z,1.600
2023-03-26T11:03:24.364Z,2.400
2023-03-26T11:04:24.152Z,1.200
2023-03-26T11:05:24.535Z,2
2023-03-26T11:06:23.066Z,2.099
2023-03-26T11:08:31.371Z,2.5
2023-03-26T11:09:23.497Z,1.600
2023-03-26T11:10:23.816Z,3.900
2023-03-26T11:11:23.200Z,1.600
2023-03-26T11:12:26.552Z,2.5
2023-03-26T11:13:23.376Z,2.200
2023-03-26T11:14:33.840Z,2.299
2023-03-26T11:15:23.763Z,1.899
2023-03-26T11:16:24.681Z,3.400
2023-03-26T11:18:23.696Z,1.700
2023-03-26T11:19:23.553Z,1.399
2023-03-26T11:21:23.456Z,1.799
2023-03-26T11:23:23.619Z,1.600
2023-03-26T11:24:24.200Z,1
2023-03-26T11:25:23.593Z,0.800
2023-03-26T11:26:23.736Z,1.600
2023-03-26T11:27:25.193Z,1.299
2023-03-26T11:28:23.448Z,1.700
2023-03-26T11:29:32.630Z,1
2023-03-26T11:30:23.402Z,1.5
2023-03-26T11:32:23.394Z,1.100
2023-03-26T11:33:22.878Z,1.299
2023-03-26T11:34:23.556Z,0.899
2023-03-26T11:35:39.273Z,1.299
2023-03-26T11:36:23.505Z,0.600
2023-03-26T11:37:22.924Z,1.200
2023-03-26T11:38:22.972Z,0.400
2023-03-26T11:39:24.109Z,1.600
2023-03-26T11:40:23.477Z,0.800
2023-03-26T11:41:23.628Z,0.899
2023-03-26T11:42:23.502Z,1.600
2023-03-26T11:43:23.451Z,0.899
2023-03-26T11:44:23.027Z,1
2023-03-26T11:45:28.310Z,0.400
2023-03-26T11:46:23.938Z,0.699
2023-03-26T11:47:23.309Z,1.200
2023-03-26T11:48:23.762Z,0.300
2023-03-26T11:49:23.083Z,0.5
2023-03-26T11:51:23.665Z,1.399
2023-03-26T11:52:23.214Z,1.799
2023-03-26T11:53:23.104Z,1.100
2023-03-26T11:54:23.438Z,0.899
2023-03-26T11:55:23.236Z,1.200
2023-03-26T11:57:23.735Z,1.299
2023-03-26T11:58:23.328Z,1.700
2023-03-26T11:59:23.739Z,3
2023-03-26T12:00:24.614Z,0.800
2023-03-26T12:01:37.025Z,0.600
2023-03-26T12:02:23.319Z,0.699
2023-03-26T12:03:23.323Z,2
2023-03-26T12:04:23.286Z,0.400
2023-03-26T12:06:23.822Z,0.200
2023-03-26T12:07:37.394Z,0.100
2023-03-26T12:08:22.798Z,0.699
2023-03-26T12:09:23.224Z,2.5
2023-03-26T12:10:23.297Z,3.400
2023-03-26T12:11:23.046Z,4
2023-03-26T12:12:23.211Z,2.599
2023-03-26T12:13:42.279Z,2.400
2023-03-26T12:14:23.626Z,2
2023-03-26T12:15:24.259Z,1.200
2023-03-26T12:16:23.252Z,1.5
2023-03-26T12:17:31.522Z,1.200
2023-03-26T12:18:23.327Z,2.200
2023-03-26T12:19:23.391Z,1.299
2023-03-26T12:20:23.032Z,1
2023-03-26T12:21:23.125Z,0.699
2023-03-26T12:22:24.013Z,0.600
2023-03-26T12:24:23.725Z,0.699
2023-03-26T12:26:24.159Z,0.899
2023-03-26T12:27:23.447Z,0.800
2023-03-26T12:28:23.241Z,0.400
2023-03-26T12:29:23.471Z,0.5
2023-03-26T12:30:23.167Z,0.400
2023-03-26T12:31:23.191Z,0.600
2023-03-26T12:32:27.423Z,0.5
2023-03-26T12:33:23.647Z,1.299
2023-03-26T12:34:23.376Z,0.200
2023-03-26T12:35:23.310Z,0.300
2023-03-26T12:36:23.088Z,0.699
2023-03-26T12:37:23.003Z,0.5
2023-03-26T12:38:22.572Z,0.600
2023-03-26T12:40:36.024Z,0.300
2023-03-26T12:43:19.754Z,0.600
2023-03-26T12:44:43.804Z,0.400
2023-03-26T12:44:49.271Z,0.300
2023-03-26T12:46:03.687Z,0.699
2023-03-26T12:47:56.314Z,1
2023-03-26T12:47:57.090Z,1.100
2023-03-26T12:48:53.466Z,0.899
2023-03-26T12:49:29.113Z,0.400
2023-03-26T12:50:34.099Z,0.200
2023-03-26T12:51:22.858Z,0.699
2023-03-26T12:52:23.494Z,0.5
2023-03-26T12:53:23.020Z,0.600
2023-03-26T12:54:22.807Z,0.699
2023-03-26T12:55:21.843Z,0.600
2023-03-26T12:56:23.073Z,1
2023-03-26T12:57:23.592Z,0.200
2023-03-26T12:59:23.123Z,0.699
2023-03-26T13:00:24.606Z,0.800
2023-03-26T13:02:23.144Z,0.200
2023-03-26T13:03:23.332Z,0.400
2023-03-26T13:05:23.535Z,0.300
2023-03-26T13:06:22.899Z,0.5
2023-03-26T13:07:22.540Z,0.300
2023-03-26T13:10:22.897Z,1.799
2023-03-26T13:11:23.096Z,0.699
2023-03-26T13:12:23.248Z,0.200
2023-03-26T13:13:22.914Z,0.300
2023-03-26T13:14:22.879Z,0.5
2023-03-26T13:15:22.873Z,0.400
2023-03-26T13:16:23.258Z,1.100
2023-03-26T13:17:22.663Z,0.600
2023-03-26T13:18:22.842Z,0.5
2023-03-26T13:19:23.189Z,0.800
2023-03-26T13:20:23.491Z,0.400
2023-03-26T13:21:23.738Z,0.699
2023-03-26T13:22:22.994Z,0.5
2023-03-26T13:23:23.173Z,1.100
2023-03-26T13:24:23.475Z,1.700
2023-03-26T13:25:23.392Z,0.400
2023-03-26T13:26:23.003Z,0.800
2023-03-26T13:27:23.125Z,0.699
2023-03-26T13:28:23.121Z,0.5
2023-03-26T13:29:22.782Z,1.200
2023-03-26T13:30:23.665Z,0.899
2023-03-26T13:31:22.829Z,1.200
2023-03-26T13:32:23.278Z,0.899
2023-03-26T13:33:23.013Z,1.299
2023-03-26T13:34:23.142Z,2.299
2023-03-26T13:35:23.142Z,1.200
2023-03-26T13:36:24.842Z,1.700
2023-03-26T13:37:23.781Z,1
2023-03-26T13:38:22.861Z,2.200
2023-03-26T13:39:23.545Z,0.899
2023-03-26T13:40:23.500Z,1.700
2023-03-26T13:41:23.195Z,1.799
2023-03-26T13:42:23.018Z,3.5
2023-03-26T13:43:23.606Z,5.099
2023-03-26T13:44:23.842Z,4.199
2023-03-26T13:45:23.384Z,2.900
2023-03-26T13:46:23.572Z,3.5
2023-03-26T13:47:23.707Z,1.899